sensor_id;sensor_type;location;lat;lon;timestamp;P1;durP1;ratioP1;P2;durP2;ratioP2
71696;SDS011;59528;59.082;37.926;2022-11-20T00:01:36;6.07;;;2.00;;
71696;SDS011;59528;59.082;37.926;2022-11-20T00:04:03;4.50;;;1.53;;
71696;SDS011;59528;59.082;37.926;2022-11-20T00:06:28;2.70;;;1.57;;
71696;SDS011;59528;59.082;37.926;2022-11-20T00:08:58;5.00;;;1.57;;
71696;SDS011;59528;59.082;37.926;2022-11-20T00:11:25;4.10;;;1.30;;
71696;SDS011;59528;59.082;37.926;2022-11-20T00:13:52;5.07;;;1.70;;
71696;SDS011;59528;59.082;37.926;2022-11-20T00:16:19;4.20;;;1.50;;
71696;SDS011;59528;59.082;37.926;2022-11-20T00:18:45;4.60;;;1.80;;
71696;SDS011;59528;59.082;37.926;2022-11-20T00:21:13;3.97;;;1.40;;
71696;SDS011;59528;59.082;37.926;2022-11-20T00:23:39;2.13;;;1.33;;
71696;SDS011;59528;59.082;37.926;2022-11-20T00:26:09;3.17;;;1.47;;
71696;SDS011;59528;59.082;37.926;2022-11-20T00:28:35;4.17;;;1.43;;
71696;SDS011;59528;59.082;37.926;2022-11-20T00:31:01;4.93;;;1.53;;
71696;SDS011;59528;59.082;37.926;2022-11-20T00:33:28;3.70;;;1.60;;
71696;SDS011;59528;59.082;37.926;2022-11-20T00:35:56;3.13;;;1.70;;
71696;SDS011;59528;59.082;37.926;2022-11-20T00:38:23;2.93;;;1.13;;
71696;SDS011;59528;59.082;37.926;2022-11-20T00:40:54;4.60;;;1.43;;
71696;SDS011;59528;59.082;37.926;2022-11-20T00:43:19;2.73;;;1.50;;
71696;SDS011;59528;59.082;37.926;2022-11-20T00:45:45;2.60;;;1.33;;
71696;SDS011;59528;59.082;37.926;2022-11-20T00:48:11;3.73;;;1.20;;
71696;SDS011;59528;59.082;37.926;2022-11-20T00:50:36;4.00;;;1.50;;
71696;SDS011;59528;59.082;37.926;2022-11-20T00:53:03;3.27;;;1.40;;
71696;SDS011;59528;59.082;37.926;2022-11-20T00:55:28;2.30;;;1.40;;
71696;SDS011;59528;59.082;37.926;2022-11-20T00:57:54;3.67;;;1.30;;
71696;SDS011;59528;59.082;37.926;2022-11-20T01:00:19;2.70;;;1.30;;
71696;SDS011;59528;59.082;37.926;2022-11-20T01:02:45;4.17;;;1.60;;
71696;SDS011;59528;59.082;37.926;2022-11-20T01:05:10;3.73;;;1.37;;
71696;SDS011;59528;59.082;37.926;2022-11-20T01:07:36;5.20;;;1.37;;
71696;SDS011;59528;59.082;37.926;2022-11-20T01:10:02;4.67;;;1.60;;
71696;SDS011;59528;59.082;37.926;2022-11-20T01:12:28;5.93;;;1.70;;
71696;SDS011;59528;59.082;37.926;2022-11-20T01:14:54;5.13;;;1.63;;
71696;SDS011;59528;59.082;37.926;2022-11-20T01:17:19;3.70;;;1.77;;
71696;SDS011;59528;59.082;37.926;2022-11-20T01:19:47;3.37;;;1.80;;
71696;SDS011;59528;59.082;37.926;2022-11-20T01:22:13;4.00;;;1.57;;
71696;SDS011;59528;59.082;37.926;2022-11-20T01:24:39;3.80;;;1.50;;
71696;SDS011;59528;59.082;37.926;2022-11-20T01:27:04;3.80;;;1.70;;
71696;SDS011;59528;59.082;37.926;2022-11-20T01:29:31;5.80;;;1.77;;
71696;SDS011;59528;59.082;37.926;2022-11-20T01:31:56;3.83;;;1.63;;
71696;SDS011;59528;59.082;37.926;2022-11-20T01:34:22;4.87;;;1.80;;
71696;SDS011;59528;59.082;37.926;2022-11-20T01:36:48;5.93;;;1.83;;
71696;SDS011;59528;59.082;37.926;2022-11-20T01:39:18;4.87;;;1.90;;
71696;SDS011;59528;59.082;37.926;2022-11-20T01:41:44;4.87;;;2.10;;
71696;SDS011;59528;59.082;37.926;2022-11-20T01:44:48;2.83;;;1.67;;
71696;SDS011;59528;59.082;37.926;2022-11-20T01:47:16;3.87;;;2.00;;
71696;SDS011;59528;59.082;37.926;2022-11-20T01:49:45;3.63;;;1.90;;
71696;SDS011;59528;59.082;37.926;2022-11-20T01:54:42;5.50;;;2.00;;
71696;SDS011;59528;59.082;37.926;2022-11-20T01:57:10;3.97;;;1.67;;
71696;SDS011;59528;59.082;37.926;2022-11-20T01:59:38;5.37;;;2.17;;
71696;SDS011;59528;59.082;37.926;2022-11-20T02:02:06;5.43;;;1.90;;
71696;SDS011;59528;59.082;37.926;2022-11-20T02:04:31;5.20;;;1.93;;
71696;SDS011;59528;59.082;37.926;2022-11-20T02:07:00;4.57;;;1.80;;
71696;SDS011;59528;59.082;37.926;2022-11-20T02:09:26;4.37;;;1.70;;
71696;SDS011;59528;59.082;37.926;2022-11-20T02:11:52;3.47;;;1.60;;
71696;SDS011;59528;59.082;37.926;2022-11-20T02:14:19;5.80;;;1.93;;
71696;SDS011;59528;59.082;37.926;2022-11-20T02:16:46;4.40;;;1.80;;
71696;SDS011;59528;59.082;37.926;2022-11-20T02:19:15;2.57;;;1.43;;
71696;SDS011;59528;59.082;37.926;2022-11-20T02:24:26;5.00;;;2.03;;
71696;SDS011;59528;59.082;37.926;2022-11-20T02:26:53;4.83;;;1.70;;
71696;SDS011;59528;59.082;37.926;2022-11-20T02:29:29;4.30;;;2.00;;
71696;SDS011;59528;59.082;37.926;2022-11-20T02:31:56;3.67;;;1.70;;
71696;SDS011;59528;59.082;37.926;2022-11-20T02:34:23;5.00;;;1.70;;
71696;SDS011;59528;59.082;37.926;2022-11-20T02:36:49;4.37;;;1.90;;
71696;SDS011;59528;59.082;37.926;2022-11-20T02:39:15;6.77;;;1.80;;
71696;SDS011;59528;59.082;37.926;2022-11-20T02:41:42;6.17;;;1.73;;
71696;SDS011;59528;59.082;37.926;2022-11-20T02:44:08;3.03;;;1.63;;
71696;SDS011;59528;59.082;37.926;2022-11-20T02:46:34;5.97;;;1.97;;
71696;SDS011;59528;59.082;37.926;2022-11-20T02:49:01;4.40;;;1.67;;
71696;SDS011;59528;59.082;37.926;2022-11-20T02:51:26;5.00;;;1.90;;
71696;SDS011;59528;59.082;37.926;2022-11-20T02:53:52;4.57;;;1.90;;
71696;SDS011;59528;59.082;37.926;2022-11-20T02:56:17;6.83;;;1.90;;
71696;SDS011;59528;59.082;37.926;2022-11-20T02:58:43;5.33;;;1.77;;
71696;SDS011;59528;59.082;37.926;2022-11-20T03:01:09;3.03;;;1.60;;
71696;SDS011;59528;59.082;37.926;2022-11-20T03:03:35;3.33;;;1.60;;
71696;SDS011;59528;59.082;37.926;2022-11-20T03:06:01;5.80;;;2.10;;
71696;SDS011;59528;59.082;37.926;2022-11-20T03:08:26;4.97;;;1.77;;
71696;SDS011;59528;59.082;37.926;2022-11-20T03:10:52;8.00;;;2.03;;
71696;SDS011;59528;59.082;37.926;2022-11-20T03:13:17;6.43;;;2.00;;
71696;SDS011;59528;59.082;37.926;2022-11-20T03:15:43;5.67;;;1.90;;
71696;SDS011;59528;59.082;37.926;2022-11-20T03:18:09;3.87;;;1.80;;
71696;SDS011;59528;59.082;37.926;2022-11-20T03:20:35;5.83;;;1.87;;
71696;SDS011;59528;59.082;37.926;2022-11-20T03:23:00;3.77;;;1.80;;
71696;SDS011;59528;59.082;37.926;2022-11-20T03:25:26;7.67;;;1.93;;
71696;SDS011;59528;59.082;37.926;2022-11-20T03:27:51;6.23;;;2.23;;
71696;SDS011;59528;59.082;37.926;2022-11-20T03:30:17;4.10;;;1.53;;
71696;SDS011;59528;59.082;37.926;2022-11-20T03:32:43;4.10;;;1.80;;
71696;SDS011;59528;59.082;37.926;2022-11-20T03:35:09;3.97;;;1.60;;
71696;SDS011;59528;59.082;37.926;2022-11-20T03:37:35;5.80;;;2.20;;
71696;SDS011;59528;59.082;37.926;2022-11-20T03:40:00;6.13;;;2.07;;
71696;SDS011;59528;59.082;37.926;2022-11-20T03:42:26;4.30;;;1.60;;
71696;SDS011;59528;59.082;37.926;2022-11-20T03:45:10;4.43;;;1.83;;
71696;SDS011;59528;59.082;37.926;2022-11-20T03:47:36;5.17;;;1.80;;
71696;SDS011;59528;59.082;37.926;2022-11-20T03:50:03;5.40;;;1.90;;
71696;SDS011;59528;59.082;37.926;2022-11-20T03:52:28;7.87;;;1.77;;
71696;SDS011;59528;59.082;37.926;2022-11-20T03:54:54;5.60;;;1.80;;
71696;SDS011;59528;59.082;37.926;2022-11-20T03:57:20;3.17;;;1.33;;
71696;SDS011;59528;59.082;37.926;2022-11-20T03:59:45;5.03;;;1.90;;
71696;SDS011;59528;59.082;37.926;2022-11-20T04:02:11;3.97;;;1.63;;
71696;SDS011;59528;59.082;37.926;2022-11-20T04:04:36;3.53;;;1.63;;
71696;SDS011;59528;59.082;37.926;2022-11-20T04:07:02;5.93;;;2.00;;
71696;SDS011;59528;59.082;37.926;2022-11-20T04:09:28;3.70;;;1.90;;
71696;SDS011;59528;59.082;37.926;2022-11-20T04:11:54;3.97;;;1.60;;
71696;SDS011;59528;59.082;37.926;2022-11-20T04:14:20;4.50;;;1.90;;
71696;SDS011;59528;59.082;37.926;2022-11-20T04:16:45;5.23;;;1.90;;
71696;SDS011;59528;59.082;37.926;2022-11-20T04:19:12;3.90;;;1.60;;
71696;SDS011;59528;59.082;37.926;2022-11-20T04:21:38;4.70;;;1.73;;
71696;SDS011;59528;59.082;37.926;2022-11-20T04:24:04;3.57;;;1.93;;
71696;SDS011;59528;59.082;37.926;2022-11-20T04:26:30;6.70;;;1.97;;
71696;SDS011;59528;59.082;37.926;2022-11-20T04:28:56;3.60;;;1.80;;
71696;SDS011;59528;59.082;37.926;2022-11-20T04:31:23;5.53;;;1.93;;
71696;SDS011;59528;59.082;37.926;2022-11-20T04:33:49;5.07;;;1.97;;
71696;SDS011;59528;59.082;37.926;2022-11-20T04:36:18;6.60;;;2.00;;
71696;SDS011;59528;59.082;37.926;2022-11-20T04:38:44;3.50;;;1.93;;
71696;SDS011;59528;59.082;37.926;2022-11-20T04:41:15;3.90;;;1.60;;
71696;SDS011;59528;59.082;37.926;2022-11-20T04:43:41;5.40;;;1.93;;
71696;SDS011;59528;59.082;37.926;2022-11-20T04:46:06;6.23;;;2.00;;
71696;SDS011;59528;59.082;37.926;2022-11-20T04:48:32;5.87;;;1.80;;
71696;SDS011;59528;59.082;37.926;2022-11-20T04:50:57;4.13;;;1.83;;
71696;SDS011;59528;59.082;37.926;2022-11-20T04:53:23;3.47;;;1.83;;
71696;SDS011;59528;59.082;37.926;2022-11-20T04:55:49;3.73;;;1.80;;
71696;SDS011;59528;59.082;37.926;2022-11-20T04:58:15;3.87;;;1.80;;
71696;SDS011;59528;59.082;37.926;2022-11-20T05:00:42;6.20;;;1.77;;
71696;SDS011;59528;59.082;37.926;2022-11-20T05:03:07;6.03;;;1.80;;
71696;SDS011;59528;59.082;37.926;2022-11-20T05:05:33;4.33;;;1.70;;
71696;SDS011;59528;59.082;37.926;2022-11-20T05:07:59;4.63;;;1.90;;
71696;SDS011;59528;59.082;37.926;2022-11-20T05:10:25;4.00;;;1.90;;
71696;SDS011;59528;59.082;37.926;2022-11-20T05:12:51;4.50;;;1.63;;
71696;SDS011;59528;59.082;37.926;2022-11-20T05:15:17;4.23;;;1.97;;
71696;SDS011;59528;59.082;37.926;2022-11-20T05:17:49;5.17;;;2.10;;
71696;SDS011;59528;59.082;37.926;2022-11-20T05:20:14;4.10;;;1.80;;
71696;SDS011;59528;59.082;37.926;2022-11-20T05:22:40;4.27;;;1.80;;
71696;SDS011;59528;59.082;37.926;2022-11-20T05:25:06;5.27;;;2.17;;
71696;SDS011;59528;59.082;37.926;2022-11-20T05:27:31;5.33;;;1.70;;
71696;SDS011;59528;59.082;37.926;2022-11-20T05:29:57;5.60;;;2.20;;
71696;SDS011;59528;59.082;37.926;2022-11-20T05:32:25;5.23;;;1.83;;
71696;SDS011;59528;59.082;37.926;2022-11-20T05:34:51;4.80;;;1.37;;
71696;SDS011;59528;59.082;37.926;2022-11-20T05:37:16;2.70;;;1.70;;
71696;SDS011;59528;59.082;37.926;2022-11-20T05:39:42;4.43;;;1.53;;
71696;SDS011;59528;59.082;37.926;2022-11-20T05:42:08;2.97;;;1.60;;
71696;SDS011;59528;59.082;37.926;2022-11-20T05:44:52;3.87;;;1.70;;
71696;SDS011;59528;59.082;37.926;2022-11-20T05:47:17;3.90;;;1.80;;
71696;SDS011;59528;59.082;37.926;2022-11-20T05:49:44;3.93;;;1.90;;
71696;SDS011;59528;59.082;37.926;2022-11-20T05:52:10;4.87;;;1.77;;
71696;SDS011;59528;59.082;37.926;2022-11-20T05:54:35;5.83;;;2.00;;
71696;SDS011;59528;59.082;37.926;2022-11-20T05:57:01;5.07;;;1.93;;
71696;SDS011;59528;59.082;37.926;2022-11-20T05:59:26;4.63;;;1.87;;
71696;SDS011;59528;59.082;37.926;2022-11-20T06:01:52;5.53;;;2.00;;
71696;SDS011;59528;59.082;37.926;2022-11-20T06:04:18;4.87;;;1.77;;
71696;SDS011;59528;59.082;37.926;2022-11-20T06:06:44;3.00;;;1.83;;
71696;SDS011;59528;59.082;37.926;2022-11-20T06:09:10;4.73;;;2.10;;
71696;SDS011;59528;59.082;37.926;2022-11-20T06:11:35;4.80;;;2.33;;
71696;SDS011;59528;59.082;37.926;2022-11-20T06:14:01;4.27;;;2.23;;
71696;SDS011;59528;59.082;37.926;2022-11-20T06:16:26;4.43;;;1.90;;
71696;SDS011;59528;59.082;37.926;2022-11-20T06:18:52;4.23;;;2.13;;
71696;SDS011;59528;59.082;37.926;2022-11-20T06:21:18;5.87;;;2.03;;
71696;SDS011;59528;59.082;37.926;2022-11-20T06:23:46;6.03;;;2.03;;
71696;SDS011;59528;59.082;37.926;2022-11-20T06:26:16;5.50;;;2.00;;
71696;SDS011;59528;59.082;37.926;2022-11-20T06:28:42;2.97;;;1.97;;
71696;SDS011;59528;59.082;37.926;2022-11-20T06:31:09;6.23;;;2.17;;
71696;SDS011;59528;59.082;37.926;2022-11-20T06:33:35;8.50;;;2.10;;
71696;SDS011;59528;59.082;37.926;2022-11-20T06:36:01;6.43;;;2.10;;
71696;SDS011;59528;59.082;37.926;2022-11-20T06:38:27;5.17;;;2.20;;
71696;SDS011;59528;59.082;37.926;2022-11-20T06:40:54;4.83;;;2.17;;
71696;SDS011;59528;59.082;37.926;2022-11-20T06:43:20;3.93;;;1.80;;
71696;SDS011;59528;59.082;37.926;2022-11-20T06:45:45;4.97;;;1.97;;
71696;SDS011;59528;59.082;37.926;2022-11-20T06:48:11;5.80;;;1.80;;
71696;SDS011;59528;59.082;37.926;2022-11-20T06:50:37;4.87;;;2.23;;
71696;SDS011;59528;59.082;37.926;2022-11-20T06:53:03;3.90;;;1.67;;
71696;SDS011;59528;59.082;37.926;2022-11-20T06:55:29;5.80;;;2.60;;
71696;SDS011;59528;59.082;37.926;2022-11-20T06:57:56;6.13;;;2.20;;
71696;SDS011;59528;59.082;37.926;2022-11-20T07:00:21;5.00;;;2.07;;
71696;SDS011;59528;59.082;37.926;2022-11-20T07:02:47;7.30;;;2.30;;
71696;SDS011;59528;59.082;37.926;2022-11-20T07:05:13;4.37;;;2.23;;
71696;SDS011;59528;59.082;37.926;2022-11-20T07:07:38;6.77;;;3.00;;
71696;SDS011;59528;59.082;37.926;2022-11-20T07:10:04;5.97;;;2.30;;
71696;SDS011;59528;59.082;37.926;2022-11-20T07:12:29;6.20;;;2.73;;
71696;SDS011;59528;59.082;37.926;2022-11-20T07:14:56;6.00;;;2.50;;
71696;SDS011;59528;59.082;37.926;2022-11-20T07:17:21;5.67;;;2.13;;
71696;SDS011;59528;59.082;37.926;2022-11-20T07:19:47;4.73;;;2.20;;
71696;SDS011;59528;59.082;37.926;2022-11-20T07:22:12;6.37;;;2.67;;
71696;SDS011;59528;59.082;37.926;2022-11-20T07:24:38;21.70;;;9.93;;
71696;SDS011;59528;59.082;37.926;2022-11-20T07:27:04;11.87;;;5.97;;
71696;SDS011;59528;59.082;37.926;2022-11-20T07:29:29;11.80;;;6.03;;
71696;SDS011;59528;59.082;37.926;2022-11-20T07:31:56;13.53;;;7.27;;
71696;SDS011;59528;59.082;37.926;2022-11-20T07:34:22;10.73;;;4.80;;
71696;SDS011;59528;59.082;37.926;2022-11-20T07:36:47;14.20;;;5.70;;
71696;SDS011;59528;59.082;37.926;2022-11-20T07:39:13;15.30;;;6.70;;
71696;SDS011;59528;59.082;37.926;2022-11-20T07:41:39;19.33;;;8.23;;
71696;SDS011;59528;59.082;37.926;2022-11-20T07:44:04;15.70;;;6.70;;
71696;SDS011;59528;59.082;37.926;2022-11-20T07:46:30;13.87;;;5.30;;
71696;SDS011;59528;59.082;37.926;2022-11-20T07:48:56;13.43;;;5.77;;
71696;SDS011;59528;59.082;37.926;2022-11-20T07:51:21;23.73;;;10.07;;
71696;SDS011;59528;59.082;37.926;2022-11-20T07:53:47;20.17;;;9.33;;
71696;SDS011;59528;59.082;37.926;2022-11-20T07:56:15;22.47;;;9.77;;
71696;SDS011;59528;59.082;37.926;2022-11-20T07:58:41;22.23;;;10.67;;
71696;SDS011;59528;59.082;37.926;2022-11-20T08:01:06;18.23;;;7.83;;
71696;SDS011;59528;59.082;37.926;2022-11-20T08:03:32;13.17;;;6.37;;
71696;SDS011;59528;59.082;37.926;2022-11-20T08:05:58;10.10;;;5.27;;
71696;SDS011;59528;59.082;37.926;2022-11-20T08:08:25;10.77;;;4.87;;
71696;SDS011;59528;59.082;37.926;2022-11-20T08:10:52;8.03;;;4.00;;
71696;SDS011;59528;59.082;37.926;2022-11-20T08:13:17;7.47;;;3.50;;
71696;SDS011;59528;59.082;37.926;2022-11-20T08:16:02;8.07;;;3.50;;
71696;SDS011;59528;59.082;37.926;2022-11-20T08:18:27;7.97;;;3.07;;
71696;SDS011;59528;59.082;37.926;2022-11-20T08:20:53;7.30;;;3.03;;
71696;SDS011;59528;59.082;37.926;2022-11-20T08:23:18;6.33;;;2.87;;
71696;SDS011;59528;59.082;37.926;2022-11-20T08:25:48;5.33;;;2.37;;
71696;SDS011;59528;59.082;37.926;2022-11-20T08:28:14;7.03;;;2.57;;
71696;SDS011;59528;59.082;37.926;2022-11-20T08:30:40;5.97;;;2.63;;
71696;SDS011;59528;59.082;37.926;2022-11-20T08:33:06;4.67;;;2.27;;
71696;SDS011;59528;59.082;37.926;2022-11-20T08:35:34;4.93;;;2.10;;
71696;SDS011;59528;59.082;37.926;2022-11-20T08:38:00;6.13;;;2.33;;
71696;SDS011;59528;59.082;37.926;2022-11-20T08:40:26;6.67;;;2.33;;
71696;SDS011;59528;59.082;37.926;2022-11-20T08:42:52;5.60;;;1.97;;
71696;SDS011;59528;59.082;37.926;2022-11-20T08:45:18;3.93;;;2.00;;
71696;SDS011;59528;59.082;37.926;2022-11-20T08:47:44;5.90;;;1.93;;
71696;SDS011;59528;59.082;37.926;2022-11-20T08:50:10;5.20;;;2.40;;
71696;SDS011;59528;59.082;37.926;2022-11-20T08:52:36;5.43;;;2.30;;
71696;SDS011;59528;59.082;37.926;2022-11-20T08:55:03;5.30;;;2.40;;
71696;SDS011;59528;59.082;37.926;2022-11-20T08:57:31;6.27;;;2.73;;
71696;SDS011;59528;59.082;37.926;2022-11-20T08:59:56;4.03;;;2.20;;
71696;SDS011;59528;59.082;37.926;2022-11-20T09:02:22;4.63;;;2.33;;
71696;SDS011;59528;59.082;37.926;2022-11-20T09:04:48;3.93;;;1.57;;
71696;SDS011;59528;59.082;37.926;2022-11-20T09:07:13;4.97;;;2.10;;
71696;SDS011;59528;59.082;37.926;2022-11-20T09:09:39;4.57;;;2.30;;
71696;SDS011;59528;59.082;37.926;2022-11-20T09:12:04;4.77;;;1.93;;
71696;SDS011;59528;59.082;37.926;2022-11-20T09:14:30;5.60;;;1.87;;
71696;SDS011;59528;59.082;37.926;2022-11-20T09:16:56;4.10;;;2.17;;
71696;SDS011;59528;59.082;37.926;2022-11-20T09:19:23;24.07;;;11.20;;
71696;SDS011;59528;59.082;37.926;2022-11-20T09:21:48;10.23;;;5.47;;
71696;SDS011;59528;59.082;37.926;2022-11-20T09:24:14;11.73;;;4.80;;
71696;SDS011;59528;59.082;37.926;2022-11-20T09:26:39;8.70;;;4.37;;
71696;SDS011;59528;59.082;37.926;2022-11-20T09:29:05;10.27;;;5.20;;
71696;SDS011;59528;59.082;37.926;2022-11-20T09:31:31;8.23;;;3.47;;
71696;SDS011;59528;59.082;37.926;2022-11-20T09:33:57;10.70;;;4.10;;
71696;SDS011;59528;59.082;37.926;2022-11-20T09:36:22;8.23;;;3.60;;
71696;SDS011;59528;59.082;37.926;2022-11-20T09:38:48;14.33;;;6.13;;
71696;SDS011;59528;59.082;37.926;2022-11-20T09:41:23;11.90;;;5.53;;
71696;SDS011;59528;59.082;37.926;2022-11-20T09:51:59;10.67;;;3.30;;
71696;SDS011;59528;59.082;37.926;2022-11-20T09:54:35;6.73;;;3.20;;
71696;SDS011;59528;59.082;37.926;2022-11-20T09:57:03;7.40;;;3.33;;
71696;SDS011;59528;59.082;37.926;2022-11-20T10:01:59;8.00;;;4.30;;
71696;SDS011;59528;59.082;37.926;2022-11-20T10:04:25;13.27;;;6.87;;
71696;SDS011;59528;59.082;37.926;2022-11-20T10:07:02;10.23;;;4.70;;
71696;SDS011;59528;59.082;37.926;2022-11-20T10:09:31;9.60;;;3.93;;
71696;SDS011;59528;59.082;37.926;2022-11-20T10:30:21;10.67;;;6.20;;
71696;SDS011;59528;59.082;37.926;2022-11-20T10:32:58;11.43;;;5.57;;
71696;SDS011;59528;59.082;37.926;2022-11-20T10:35:39;13.67;;;6.27;;
71696;SDS011;59528;59.082;37.926;2022-11-20T10:38:08;8.70;;;4.70;;
71696;SDS011;59528;59.082;37.926;2022-11-20T10:40:39;10.27;;;5.00;;
71696;SDS011;59528;59.082;37.926;2022-11-20T10:43:25;8.60;;;4.00;;
71696;SDS011;59528;59.082;37.926;2022-11-20T10:45:57;8.77;;;3.67;;
71696;SDS011;59528;59.082;37.926;2022-11-20T10:48:25;5.77;;;3.03;;
71696;SDS011;59528;59.082;37.926;2022-11-20T10:56:17;5.67;;;2.30;;
71696;SDS011;59528;59.082;37.926;2022-11-20T11:01:22;6.60;;;2.80;;
71696;SDS011;59528;59.082;37.926;2022-11-20T11:03:49;5.80;;;2.40;;
71696;SDS011;59528;59.082;37.926;2022-11-20T11:08:49;5.80;;;2.40;;
71696;SDS011;59528;59.082;37.926;2022-11-20T11:11:21;3.90;;;2.00;;
71696;SDS011;59528;59.082;37.926;2022-11-20T11:13:48;13.93;;;6.57;;
71696;SDS011;59528;59.082;37.926;2022-11-20T11:16:21;15.73;;;7.07;;
71696;SDS011;59528;59.082;37.926;2022-11-20T11:18:46;13.77;;;6.10;;
71696;SDS011;59528;59.082;37.926;2022-11-20T11:21:12;12.10;;;5.87;;
71696;SDS011;59528;59.082;37.926;2022-11-20T11:23:42;17.73;;;7.87;;
71696;SDS011;59528;59.082;37.926;2022-11-20T11:26:23;16.47;;;8.60;;
71696;SDS011;59528;59.082;37.926;2022-11-20T11:28:56;13.03;;;5.97;;
71696;SDS011;59528;59.082;37.926;2022-11-20T11:31:32;12.40;;;6.03;;
71696;SDS011;59528;59.082;37.926;2022-11-20T11:34:10;13.07;;;6.10;;
71696;SDS011;59528;59.082;37.926;2022-11-20T11:36:37;8.07;;;4.53;;
71696;SDS011;59528;59.082;37.926;2022-11-20T11:39:03;9.93;;;4.70;;
71696;SDS011;59528;59.082;37.926;2022-11-20T11:41:33;8.77;;;4.57;;
71696;SDS011;59528;59.082;37.926;2022-11-20T11:47:01;23.20;;;9.87;;
71696;SDS011;59528;59.082;37.926;2022-11-20T11:49:28;27.47;;;11.23;;
71696;SDS011;59528;59.082;37.926;2022-11-20T11:52:12;16.60;;;7.30;;
71696;SDS011;59528;59.082;37.926;2022-11-20T11:54:43;24.17;;;10.27;;
71696;SDS011;59528;59.082;37.926;2022-11-20T11:57:16;15.93;;;7.13;;
71696;SDS011;59528;59.082;37.926;2022-11-20T12:05:21;12.03;;;4.80;;
71696;SDS011;59528;59.082;37.926;2022-11-20T12:13:02;10.43;;;3.70;;
71696;SDS011;59528;59.082;37.926;2022-11-20T12:15:30;8.23;;;3.50;;
71696;SDS011;59528;59.082;37.926;2022-11-20T12:17:56;8.07;;;3.40;;
71696;SDS011;59528;59.082;37.926;2022-11-20T12:20:24;8.03;;;3.53;;
71696;SDS011;59528;59.082;37.926;2022-11-20T12:25:34;9.20;;;3.07;;
71696;SDS011;59528;59.082;37.926;2022-11-20T12:30:39;8.77;;;3.27;;
71696;SDS011;59528;59.082;37.926;2022-11-20T12:38:26;13.67;;;5.43;;
71696;SDS011;59528;59.082;37.926;2022-11-20T12:43:22;16.93;;;7.90;;
71696;SDS011;59528;59.082;37.926;2022-11-20T13:04:44;4.80;;;2.57;;
71696;SDS011;59528;59.082;37.926;2022-11-20T13:07:13;5.50;;;2.67;;
71696;SDS011;59528;59.082;37.926;2022-11-20T13:09:45;5.20;;;2.50;;
71696;SDS011;59528;59.082;37.926;2022-11-20T13:19:52;5.97;;;2.80;;
71696;SDS011;59528;59.082;37.926;2022-11-20T13:22:28;9.10;;;3.37;;
71696;SDS011;59528;59.082;37.926;2022-11-20T13:24:54;7.13;;;3.00;;
71696;SDS011;59528;59.082;37.926;2022-11-20T13:27:20;8.13;;;3.30;;
71696;SDS011;59528;59.082;37.926;2022-11-20T13:32:49;8.30;;;3.30;;
71696;SDS011;59528;59.082;37.926;2022-11-20T13:35:23;8.60;;;3.57;;
71696;SDS011;59528;59.082;37.926;2022-11-20T13:37:49;9.47;;;4.03;;
71696;SDS011;59528;59.082;37.926;2022-11-20T13:40:24;9.10;;;3.37;;
71696;SDS011;59528;59.082;37.926;2022-11-20T13:43:11;9.17;;;3.77;;
71696;SDS011;59528;59.082;37.926;2022-11-20T13:45:41;8.30;;;3.33;;
71696;SDS011;59528;59.082;37.926;2022-11-20T13:48:22;7.30;;;2.87;;
71696;SDS011;59528;59.082;37.926;2022-11-20T13:51:01;8.07;;;3.77;;
71696;SDS011;59528;59.082;37.926;2022-11-20T13:59:00;6.30;;;2.40;;
71696;SDS011;59528;59.082;37.926;2022-11-20T14:01:29;4.63;;;2.67;;
71696;SDS011;59528;59.082;37.926;2022-11-20T14:03:57;5.93;;;2.77;;
71696;SDS011;59528;59.082;37.926;2022-11-20T14:06:26;5.60;;;2.87;;
71696;SDS011;59528;59.082;37.926;2022-11-20T14:08:52;5.87;;;2.30;;
71696;SDS011;59528;59.082;37.926;2022-11-20T14:11:22;7.97;;;3.00;;
71696;SDS011;59528;59.082;37.926;2022-11-20T14:16:21;5.43;;;2.37;;
71696;SDS011;59528;59.082;37.926;2022-11-20T14:18:47;8.10;;;2.70;;
71696;SDS011;59528;59.082;37.926;2022-11-20T14:21:21;6.10;;;2.33;;
71696;SDS011;59528;59.082;37.926;2022-11-20T14:23:47;6.33;;;2.23;;
71696;SDS011;59528;59.082;37.926;2022-11-20T14:26:17;4.97;;;2.10;;
71696;SDS011;59528;59.082;37.926;2022-11-20T14:28:50;4.33;;;2.30;;
71696;SDS011;59528;59.082;37.926;2022-11-20T14:31:20;4.60;;;2.40;;
71696;SDS011;59528;59.082;37.926;2022-11-20T14:33:46;5.43;;;2.30;;
71696;SDS011;59528;59.082;37.926;2022-11-20T14:36:17;4.90;;;2.07;;
71696;SDS011;59528;59.082;37.926;2022-11-20T14:38:44;4.13;;;2.23;;
71696;SDS011;59528;59.082;37.926;2022-11-20T14:41:23;6.93;;;2.13;;
71696;SDS011;59528;59.082;37.926;2022-11-20T14:43:51;4.60;;;2.30;;
71696;SDS011;59528;59.082;37.926;2022-11-20T14:46:22;5.67;;;2.50;;
71696;SDS011;59528;59.082;37.926;2022-11-20T14:48:50;7.77;;;2.60;;
71696;SDS011;59528;59.082;37.926;2022-11-20T14:51:30;6.73;;;2.23;;
71696;SDS011;59528;59.082;37.926;2022-11-20T14:54:07;3.87;;;2.43;;
71696;SDS011;59528;59.082;37.926;2022-11-20T14:56:33;3.43;;;1.90;;
71696;SDS011;59528;59.082;37.926;2022-11-20T14:58:58;5.53;;;2.27;;
71696;SDS011;59528;59.082;37.926;2022-11-20T15:01:27;3.87;;;2.00;;
71696;SDS011;59528;59.082;37.926;2022-11-20T15:04:26;5.07;;;1.93;;
71696;SDS011;59528;59.082;37.926;2022-11-20T15:06:49;5.60;;;2.77;;
71696;SDS011;59528;59.082;37.926;2022-11-20T15:09:15;3.80;;;2.07;;
71696;SDS011;59528;59.082;37.926;2022-11-20T15:11:50;6.00;;;2.20;;
71696;SDS011;59528;59.082;37.926;2022-11-20T15:14:17;4.87;;;1.87;;
71696;SDS011;59528;59.082;37.926;2022-11-20T15:16:42;4.63;;;1.93;;
71696;SDS011;59528;59.082;37.926;2022-11-20T15:19:13;6.30;;;2.60;;
71696;SDS011;59528;59.082;37.926;2022-11-20T15:21:41;6.53;;;2.57;;
71696;SDS011;59528;59.082;37.926;2022-11-20T15:24:08;3.97;;;2.13;;
71696;SDS011;59528;59.082;37.926;2022-11-20T15:26:34;6.13;;;2.30;;
71696;SDS011;59528;59.082;37.926;2022-11-20T15:29:00;5.47;;;2.33;;
71696;SDS011;59528;59.082;37.926;2022-11-20T15:31:25;4.93;;;2.30;;
71696;SDS011;59528;59.082;37.926;2022-11-20T15:33:51;4.30;;;2.27;;
71696;SDS011;59528;59.082;37.926;2022-11-20T15:36:17;4.77;;;2.33;;
71696;SDS011;59528;59.082;37.926;2022-11-20T15:38:42;4.87;;;2.30;;
71696;SDS011;59528;59.082;37.926;2022-11-20T15:41:08;4.33;;;2.10;;
71696;SDS011;59528;59.082;37.926;2022-11-20T15:43:34;4.47;;;2.10;;
71696;SDS011;59528;59.082;37.926;2022-11-20T15:46:00;4.57;;;1.93;;
71696;SDS011;59528;59.082;37.926;2022-11-20T15:48:31;4.30;;;2.10;;
71696;SDS011;59528;59.082;37.926;2022-11-20T15:53:35;5.87;;;1.93;;
71696;SDS011;59528;59.082;37.926;2022-11-20T15:56:02;3.90;;;1.90;;
71696;SDS011;59528;59.082;37.926;2022-11-20T15:58:27;7.23;;;2.13;;
71696;SDS011;59528;59.082;37.926;2022-11-20T16:00:53;3.40;;;1.87;;
71696;SDS011;59528;59.082;37.926;2022-11-20T16:03:19;6.23;;;2.47;;
71696;SDS011;59528;59.082;37.926;2022-11-20T16:05:45;6.67;;;2.03;;
71696;SDS011;59528;59.082;37.926;2022-11-20T16:08:11;5.90;;;2.33;;
71696;SDS011;59528;59.082;37.926;2022-11-20T16:10:36;5.27;;;2.00;;
71696;SDS011;59528;59.082;37.926;2022-11-20T16:13:02;3.87;;;1.90;;
71696;SDS011;59528;59.082;37.926;2022-11-20T16:15:55;3.33;;;2.13;;
71696;SDS011;59528;59.082;37.926;2022-11-20T16:18:21;5.33;;;2.00;;
71696;SDS011;59528;59.082;37.926;2022-11-20T16:20:48;5.73;;;2.33;;
71696;SDS011;59528;59.082;37.926;2022-11-20T16:23:14;4.97;;;2.00;;
71696;SDS011;59528;59.082;37.926;2022-11-20T16:25:41;5.27;;;2.20;;
71696;SDS011;59528;59.082;37.926;2022-11-20T16:28:07;4.70;;;2.13;;